Gold Hill, Nevada
Current Conditions -  °F | °C
As of 7:55 PM on Saturday 25 Oct 2014 (Local Time) from KRNO Reporting Station
Scattered Clouds Scattered Clouds  
Wind Chill: 51°   Ceiling: Unl
Heat Index: 51°   Visibility: 10mi
Dew Point: 29°   Wind: 32mph
Humidity: 43%   Direction: 160°SSE
Pressure: 30.03"   Gusts: 45mph
Location:  39.4994°N, 119.507°W
Report Text: KRNO 260255Z 16028G39KT 10SM FEW055 SCT070 11/M02 A3003 RMK AO2 PK WND 16039/0250 SLP139 T01061017 50001
Loading
Personal Weather Stations






























Interactive Weather Map
Tropical Storm Tracking
New forecast layout! Learn more

10-Day Weather Forecast

Advertisements
Track Severe Weather on mobile